sensor_id;sensor_type;location;lat;lon;timestamp;P1;durP1;ratioP1;P2;durP2;ratioP2
66927;SDS011;59882;45.624;11.698;2023-02-15T00:01:26;124.93;;;69.40;;
66927;SDS011;59882;45.624;11.698;2023-02-15T00:03:52;119.67;;;65.27;;
66927;SDS011;59882;45.624;11.698;2023-02-15T00:06:18;116.72;;;66.88;;
66927;SDS011;59882;45.624;11.698;2023-02-15T00:08:43;115.37;;;66.03;;
66927;SDS011;59882;45.624;11.698;2023-02-15T00:11:10;121.72;;;67.45;;
66927;SDS011;59882;45.624;11.698;2023-02-15T00:13:38;115.97;;;68.22;;
66927;SDS011;59882;45.624;11.698;2023-02-15T00:16:07;110.77;;;65.37;;
66927;SDS011;59882;45.624;11.698;2023-02-15T00:18:36;124.05;;;69.88;;
66927;SDS011;59882;45.624;11.698;2023-02-15T00:21:06;116.82;;;65.32;;
66927;SDS011;59882;45.624;11.698;2023-02-15T00:23:34;114.28;;;64.75;;
66927;SDS011;59882;45.624;11.698;2023-02-15T00:26:18;110.95;;;64.82;;
66927;SDS011;59882;45.624;11.698;2023-02-15T00:28:44;112.77;;;63.50;;
66927;SDS011;59882;45.624;11.698;2023-02-15T00:31:10;109.97;;;61.42;;
66927;SDS011;59882;45.624;11.698;2023-02-15T00:33:37;109.72;;;61.08;;
66927;SDS011;59882;45.624;11.698;2023-02-15T00:36:04;111.57;;;62.90;;
66927;SDS011;59882;45.624;11.698;2023-02-15T00:38:32;106.05;;;61.65;;
66927;SDS011;59882;45.624;11.698;2023-02-15T00:41:00;108.82;;;63.08;;
66927;SDS011;59882;45.624;11.698;2023-02-15T00:43:28;102.57;;;61.15;;
66927;SDS011;59882;45.624;11.698;2023-02-15T00:45:55;106.03;;;62.55;;
66927;SDS011;59882;45.624;11.698;2023-02-15T00:48:21;104.20;;;60.73;;
66927;SDS011;59882;45.624;11.698;2023-02-15T00:50:52;106.05;;;60.38;;
66927;SDS011;59882;45.624;11.698;2023-02-15T00:53:19;98.85;;;57.45;;
66927;SDS011;59882;45.624;11.698;2023-02-15T00:55:45;103.13;;;58.22;;
66927;SDS011;59882;45.624;11.698;2023-02-15T00:58:11;101.67;;;59.23;;
66927;SDS011;59882;45.624;11.698;2023-02-15T01:00:37;102.88;;;57.33;;
66927;SDS011;59882;45.624;11.698;2023-02-15T01:03:04;96.72;;;56.28;;
66927;SDS011;59882;45.624;11.698;2023-02-15T01:05:30;106.17;;;59.30;;
66927;SDS011;59882;45.624;11.698;2023-02-15T01:07:57;101.72;;;60.25;;
66927;SDS011;59882;45.624;11.698;2023-02-15T01:10:23;100.30;;;58.33;;
66927;SDS011;59882;45.624;11.698;2023-02-15T01:12:52;97.00;;;55.63;;
66927;SDS011;59882;45.624;11.698;2023-02-15T01:15:19;106.68;;;60.35;;
66927;SDS011;59882;45.624;11.698;2023-02-15T01:17:45;106.82;;;59.95;;
66927;SDS011;59882;45.624;11.698;2023-02-15T01:20:19;110.30;;;61.40;;
66927;SDS011;59882;45.624;11.698;2023-02-15T01:22:46;102.25;;;58.83;;
66927;SDS011;59882;45.624;11.698;2023-02-15T01:25:14;103.50;;;61.58;;
66927;SDS011;59882;45.624;11.698;2023-02-15T01:27:44;101.78;;;58.63;;
66927;SDS011;59882;45.624;11.698;2023-02-15T01:30:10;106.03;;;58.47;;
66927;SDS011;59882;45.624;11.698;2023-02-15T01:32:37;102.23;;;58.40;;
66927;SDS011;59882;45.624;11.698;2023-02-15T01:35:03;100.25;;;57.63;;
66927;SDS011;59882;45.624;11.698;2023-02-15T01:37:32;92.83;;;54.57;;
66927;SDS011;59882;45.624;11.698;2023-02-15T01:39:58;104.20;;;58.27;;
66927;SDS011;59882;45.624;11.698;2023-02-15T01:42:25;105.80;;;59.13;;
66927;SDS011;59882;45.624;11.698;2023-02-15T01:50:15;95.25;;;53.90;;
66927;SDS011;59882;45.624;11.698;2023-02-15T01:52:58;94.90;;;53.63;;
66927;SDS011;59882;45.624;11.698;2023-02-15T01:55:42;97.22;;;55.70;;
66927;SDS011;59882;45.624;11.698;2023-02-15T01:58:17;94.95;;;52.03;;
66927;SDS011;59882;45.624;11.698;2023-02-15T02:00:44;111.65;;;58.05;;
66927;SDS011;59882;45.624;11.698;2023-02-15T02:03:10;97.83;;;54.13;;
66927;SDS011;59882;45.624;11.698;2023-02-15T02:05:36;100.93;;;57.00;;
66927;SDS011;59882;45.624;11.698;2023-02-15T02:08:03;102.10;;;55.03;;
66927;SDS011;59882;45.624;11.698;2023-02-15T02:10:29;93.40;;;53.45;;
66927;SDS011;59882;45.624;11.698;2023-02-15T02:12:57;88.70;;;50.53;;
66927;SDS011;59882;45.624;11.698;2023-02-15T02:21:08;88.97;;;50.92;;
66927;SDS011;59882;45.624;11.698;2023-02-15T02:35:22;91.00;;;50.83;;
66927;SDS011;59882;45.624;11.698;2023-02-15T02:43:07;93.13;;;51.87;;
66927;SDS011;59882;45.624;11.698;2023-02-15T02:45:54;91.95;;;51.85;;
66927;SDS011;59882;45.624;11.698;2023-02-15T02:48:25;95.20;;;52.83;;
66927;SDS011;59882;45.624;11.698;2023-02-15T02:50:54;90.10;;;48.25;;
66927;SDS011;59882;45.624;11.698;2023-02-15T02:53:20;90.70;;;49.97;;
66927;SDS011;59882;45.624;11.698;2023-02-15T02:56:21;88.78;;;52.10;;
66927;SDS011;59882;45.624;11.698;2023-02-15T02:58:42;89.20;;;50.73;;
66927;SDS011;59882;45.624;11.698;2023-02-15T03:01:13;87.10;;;48.60;;
66927;SDS011;59882;45.624;11.698;2023-02-15T03:03:49;87.38;;;49.13;;
66927;SDS011;59882;45.624;11.698;2023-02-15T03:06:24;91.10;;;50.72;;
66927;SDS011;59882;45.624;11.698;2023-02-15T03:09:01;89.95;;;50.40;;
66927;SDS011;59882;45.624;11.698;2023-02-15T03:11:33;90.33;;;52.73;;
66927;SDS011;59882;45.624;11.698;2023-02-15T03:13:59;86.72;;;49.25;;
66927;SDS011;59882;45.624;11.698;2023-02-15T03:16:25;89.15;;;50.05;;
66927;SDS011;59882;45.624;11.698;2023-02-15T03:18:55;89.00;;;50.53;;
66927;SDS011;59882;45.624;11.698;2023-02-15T03:24:07;86.85;;;47.75;;
66927;SDS011;59882;45.624;11.698;2023-02-15T03:26:38;92.57;;;52.85;;
66927;SDS011;59882;45.624;11.698;2023-02-15T03:29:06;90.32;;;48.95;;
66927;SDS011;59882;45.624;11.698;2023-02-15T03:31:35;90.20;;;49.22;;
66927;SDS011;59882;45.624;11.698;2023-02-15T03:34:06;84.67;;;48.40;;
66927;SDS011;59882;45.624;11.698;2023-02-15T03:36:38;92.93;;;51.58;;
66927;SDS011;59882;45.624;11.698;2023-02-15T03:39:29;97.22;;;51.22;;
66927;SDS011;59882;45.624;11.698;2023-02-15T03:47:33;92.83;;;47.93;;
66927;SDS011;59882;45.624;11.698;2023-02-15T03:50:26;89.57;;;48.67;;
66927;SDS011;59882;45.624;11.698;2023-02-15T03:53:13;89.03;;;48.28;;
66927;SDS011;59882;45.624;11.698;2023-02-15T03:55:41;86.80;;;46.97;;
66927;SDS011;59882;45.624;11.698;2023-02-15T03:58:10;85.22;;;47.17;;
66927;SDS011;59882;45.624;11.698;2023-02-15T04:01:00;81.60;;;45.27;;
66927;SDS011;59882;45.624;11.698;2023-02-15T04:03:52;90.13;;;45.92;;
66927;SDS011;59882;45.624;11.698;2023-02-15T04:06:24;85.55;;;46.47;;
66927;SDS011;59882;45.624;11.698;2023-02-15T04:08:49;81.73;;;46.67;;
66927;SDS011;59882;45.624;11.698;2023-02-15T04:11:33;84.20;;;46.40;;
66927;SDS011;59882;45.624;11.698;2023-02-15T04:13:59;84.32;;;47.67;;
66927;SDS011;59882;45.624;11.698;2023-02-15T04:16:45;79.97;;;44.50;;
66927;SDS011;59882;45.624;11.698;2023-02-15T04:19:10;82.75;;;46.67;;
66927;SDS011;59882;45.624;11.698;2023-02-15T04:21:54;79.43;;;45.90;;
66927;SDS011;59882;45.624;11.698;2023-02-15T04:24:38;85.37;;;46.67;;
66927;SDS011;59882;45.624;11.698;2023-02-15T04:27:22;80.57;;;46.00;;
66927;SDS011;59882;45.624;11.698;2023-02-15T04:29:48;84.45;;;47.28;;
66927;SDS011;59882;45.624;11.698;2023-02-15T04:32:14;82.47;;;46.57;;
66927;SDS011;59882;45.624;11.698;2023-02-15T04:34:40;84.80;;;46.47;;
66927;SDS011;59882;45.624;11.698;2023-02-15T04:37:05;87.30;;;45.30;;
66927;SDS011;59882;45.624;11.698;2023-02-15T04:39:31;77.50;;;44.08;;
66927;SDS011;59882;45.624;11.698;2023-02-15T04:41:57;72.07;;;41.33;;
66927;SDS011;59882;45.624;11.698;2023-02-15T04:44:22;78.25;;;41.92;;
66927;SDS011;59882;45.624;11.698;2023-02-15T04:46:48;80.67;;;43.47;;
66927;SDS011;59882;45.624;11.698;2023-02-15T04:49:14;83.70;;;45.67;;
66927;SDS011;59882;45.624;11.698;2023-02-15T04:51:39;83.47;;;45.25;;
66927;SDS011;59882;45.624;11.698;2023-02-15T04:54:05;81.40;;;44.00;;
66927;SDS011;59882;45.624;11.698;2023-02-15T04:56:30;79.53;;;44.03;;
66927;SDS011;59882;45.624;11.698;2023-02-15T04:58:58;81.60;;;45.13;;
66927;SDS011;59882;45.624;11.698;2023-02-15T05:01:23;77.33;;;42.17;;
66927;SDS011;59882;45.624;11.698;2023-02-15T05:03:49;80.03;;;43.28;;
66927;SDS011;59882;45.624;11.698;2023-02-15T05:06:14;73.30;;;40.90;;
66927;SDS011;59882;45.624;11.698;2023-02-15T05:08:40;71.20;;;41.80;;
66927;SDS011;59882;45.624;11.698;2023-02-15T05:11:05;77.63;;;42.78;;
66927;SDS011;59882;45.624;11.698;2023-02-15T05:13:31;77.33;;;42.27;;
66927;SDS011;59882;45.624;11.698;2023-02-15T05:15:57;78.72;;;45.22;;
66927;SDS011;59882;45.624;11.698;2023-02-15T05:18:23;83.13;;;44.50;;
66927;SDS011;59882;45.624;11.698;2023-02-15T05:20:49;78.85;;;42.55;;
66927;SDS011;59882;45.624;11.698;2023-02-15T05:23:14;78.13;;;42.73;;
66927;SDS011;59882;45.624;11.698;2023-02-15T05:25:40;80.75;;;44.15;;
66927;SDS011;59882;45.624;11.698;2023-02-15T05:28:25;80.85;;;43.88;;
66927;SDS011;59882;45.624;11.698;2023-02-15T05:31:13;80.23;;;45.73;;
66927;SDS011;59882;45.624;11.698;2023-02-15T05:33:37;86.25;;;44.67;;
66927;SDS011;59882;45.624;11.698;2023-02-15T05:36:04;81.78;;;44.70;;
66927;SDS011;59882;45.624;11.698;2023-02-15T05:38:30;78.80;;;44.35;;
66927;SDS011;59882;45.624;11.698;2023-02-15T05:40:56;79.97;;;43.65;;
66927;SDS011;59882;45.624;11.698;2023-02-15T05:43:22;77.67;;;41.20;;
66927;SDS011;59882;45.624;11.698;2023-02-15T05:45:49;81.15;;;45.63;;
66927;SDS011;59882;45.624;11.698;2023-02-15T05:48:20;81.25;;;44.83;;
66927;SDS011;59882;45.624;11.698;2023-02-15T05:50:56;87.97;;;45.17;;
66927;SDS011;59882;45.624;11.698;2023-02-15T05:53:23;90.17;;;47.00;;
66927;SDS011;59882;45.624;11.698;2023-02-15T05:55:48;83.15;;;44.92;;
66927;SDS011;59882;45.624;11.698;2023-02-15T05:58:14;97.60;;;48.37;;
66927;SDS011;59882;45.624;11.698;2023-02-15T06:00:39;88.47;;;48.33;;
66927;SDS011;59882;45.624;11.698;2023-02-15T06:03:05;94.83;;;47.33;;
66927;SDS011;59882;45.624;11.698;2023-02-15T06:05:31;89.00;;;47.67;;
66927;SDS011;59882;45.624;11.698;2023-02-15T06:07:56;82.30;;;47.25;;
66927;SDS011;59882;45.624;11.698;2023-02-15T06:10:22;91.27;;;48.03;;
66927;SDS011;59882;45.624;11.698;2023-02-15T06:12:47;84.95;;;46.22;;
66927;SDS011;59882;45.624;11.698;2023-02-15T06:15:13;86.40;;;48.13;;
66927;SDS011;59882;45.624;11.698;2023-02-15T06:17:40;100.63;;;52.53;;
66927;SDS011;59882;45.624;11.698;2023-02-15T06:20:07;94.22;;;52.85;;
66927;SDS011;59882;45.624;11.698;2023-02-15T06:22:33;98.80;;;55.03;;
66927;SDS011;59882;45.624;11.698;2023-02-15T06:24:59;99.95;;;51.72;;
66927;SDS011;59882;45.624;11.698;2023-02-15T06:27:25;155.67;;;79.50;;
66927;SDS011;59882;45.624;11.698;2023-02-15T06:29:50;116.97;;;62.53;;
66927;SDS011;59882;45.624;11.698;2023-02-15T06:32:16;111.93;;;60.05;;
66927;SDS011;59882;45.624;11.698;2023-02-15T06:34:42;124.57;;;67.33;;
66927;SDS011;59882;45.624;11.698;2023-02-15T06:37:07;115.43;;;63.22;;
66927;SDS011;59882;45.624;11.698;2023-02-15T06:39:33;94.83;;;53.43;;
66927;SDS011;59882;45.624;11.698;2023-02-15T06:41:59;106.63;;;54.15;;
66927;SDS011;59882;45.624;11.698;2023-02-15T06:44:25;95.13;;;52.42;;
66927;SDS011;59882;45.624;11.698;2023-02-15T06:46:50;95.87;;;52.70;;
66927;SDS011;59882;45.624;11.698;2023-02-15T06:49:16;90.90;;;50.17;;
66927;SDS011;59882;45.624;11.698;2023-02-15T06:51:41;94.35;;;54.35;;
66927;SDS011;59882;45.624;11.698;2023-02-15T06:54:07;107.60;;;59.30;;
66927;SDS011;59882;45.624;11.698;2023-02-15T06:56:33;111.78;;;60.58;;
66927;SDS011;59882;45.624;11.698;2023-02-15T06:58:58;99.50;;;55.17;;
66927;SDS011;59882;45.624;11.698;2023-02-15T07:01:24;96.57;;;55.77;;
66927;SDS011;59882;45.624;11.698;2023-02-15T07:03:50;100.10;;;54.10;;
66927;SDS011;59882;45.624;11.698;2023-02-15T07:06:15;107.60;;;57.17;;
66927;SDS011;59882;45.624;11.698;2023-02-15T07:08:41;111.93;;;59.80;;
66927;SDS011;59882;45.624;11.698;2023-02-15T07:11:07;113.40;;;58.73;;
66927;SDS011;59882;45.624;11.698;2023-02-15T07:13:51;114.43;;;59.42;;
66927;SDS011;59882;45.624;11.698;2023-02-15T07:16:17;104.90;;;57.28;;
66927;SDS011;59882;45.624;11.698;2023-02-15T07:18:44;112.65;;;60.53;;
66927;SDS011;59882;45.624;11.698;2023-02-15T07:21:09;112.93;;;60.40;;
66927;SDS011;59882;45.624;11.698;2023-02-15T07:23:36;118.90;;;61.53;;
66927;SDS011;59882;45.624;11.698;2023-02-15T07:26:02;148.35;;;72.72;;
66927;SDS011;59882;45.624;11.698;2023-02-15T07:28:29;143.47;;;70.77;;
66927;SDS011;59882;45.624;11.698;2023-02-15T07:30:54;121.82;;;64.97;;
66927;SDS011;59882;45.624;11.698;2023-02-15T07:33:20;100.43;;;54.00;;
66927;SDS011;59882;45.624;11.698;2023-02-15T07:35:52;99.47;;;53.72;;
66927;SDS011;59882;45.624;11.698;2023-02-15T07:38:19;94.78;;;53.33;;
66927;SDS011;59882;45.624;11.698;2023-02-15T07:40:46;91.43;;;52.70;;
66927;SDS011;59882;45.624;11.698;2023-02-15T07:43:12;96.43;;;51.67;;
66927;SDS011;59882;45.624;11.698;2023-02-15T07:45:38;94.63;;;53.17;;
66927;SDS011;59882;45.624;11.698;2023-02-15T07:48:05;105.13;;;56.03;;
66927;SDS011;59882;45.624;11.698;2023-02-15T07:50:31;101.30;;;56.28;;
66927;SDS011;59882;45.624;11.698;2023-02-15T07:52:57;95.80;;;54.75;;
66927;SDS011;59882;45.624;11.698;2023-02-15T07:55:22;98.63;;;53.87;;
66927;SDS011;59882;45.624;11.698;2023-02-15T07:57:50;112.70;;;62.15;;
66927;SDS011;59882;45.624;11.698;2023-02-15T08:00:17;120.55;;;63.88;;
66927;SDS011;59882;45.624;11.698;2023-02-15T08:02:55;120.20;;;65.25;;
66927;SDS011;59882;45.624;11.698;2023-02-15T08:05:40;99.07;;;54.53;;
66927;SDS011;59882;45.624;11.698;2023-02-15T08:08:07;98.88;;;54.55;;
66927;SDS011;59882;45.624;11.698;2023-02-15T08:10:33;88.32;;;49.83;;
66927;SDS011;59882;45.624;11.698;2023-02-15T08:13:19;87.50;;;48.85;;
66927;SDS011;59882;45.624;11.698;2023-02-15T08:15:51;97.43;;;53.22;;
66927;SDS011;59882;45.624;11.698;2023-02-15T08:18:16;101.03;;;54.30;;
66927;SDS011;59882;45.624;11.698;2023-02-15T08:20:42;91.28;;;53.75;;
66927;SDS011;59882;45.624;11.698;2023-02-15T08:23:13;99.20;;;55.72;;
66927;SDS011;59882;45.624;11.698;2023-02-15T08:25:39;95.03;;;55.88;;
66927;SDS011;59882;45.624;11.698;2023-02-15T08:28:05;98.20;;;56.03;;
66927;SDS011;59882;45.624;11.698;2023-02-15T08:30:30;90.97;;;52.70;;
66927;SDS011;59882;45.624;11.698;2023-02-15T08:32:56;94.20;;;55.53;;
66927;SDS011;59882;45.624;11.698;2023-02-15T08:35:21;100.43;;;52.50;;
66927;SDS011;59882;45.624;11.698;2023-02-15T08:37:47;90.60;;;51.75;;
66927;SDS011;59882;45.624;11.698;2023-02-15T08:40:12;98.67;;;52.37;;
66927;SDS011;59882;45.624;11.698;2023-02-15T08:42:38;96.43;;;52.33;;
66927;SDS011;59882;45.624;11.698;2023-02-15T08:45:04;89.77;;;51.33;;
66927;SDS011;59882;45.624;11.698;2023-02-15T08:47:30;88.80;;;52.10;;
66927;SDS011;59882;45.624;11.698;2023-02-15T08:49:56;90.63;;;51.63;;
66927;SDS011;59882;45.624;11.698;2023-02-15T08:52:21;86.67;;;51.20;;
66927;SDS011;59882;45.624;11.698;2023-02-15T08:54:47;94.83;;;51.83;;
66927;SDS011;59882;45.624;11.698;2023-02-15T08:57:12;96.05;;;53.60;;
66927;SDS011;59882;45.624;11.698;2023-02-15T08:59:38;95.23;;;50.10;;
66927;SDS011;59882;45.624;11.698;2023-02-15T09:02:03;90.50;;;55.00;;
66927;SDS011;59882;45.624;11.698;2023-02-15T09:04:29;100.60;;;56.60;;
66927;SDS011;59882;45.624;11.698;2023-02-15T09:06:54;86.40;;;52.17;;
66927;SDS011;59882;45.624;11.698;2023-02-15T09:09:20;85.53;;;52.97;;
66927;SDS011;59882;45.624;11.698;2023-02-15T09:11:48;90.27;;;48.73;;
66927;SDS011;59882;45.624;11.698;2023-02-15T09:14:15;87.35;;;48.13;;
66927;SDS011;59882;45.624;11.698;2023-02-15T09:16:45;88.05;;;49.17;;
66927;SDS011;59882;45.624;11.698;2023-02-15T09:19:13;84.13;;;49.85;;
66927;SDS011;59882;45.624;11.698;2023-02-15T09:21:40;82.50;;;47.15;;
66927;SDS011;59882;45.624;11.698;2023-02-15T09:24:07;83.63;;;49.30;;
66927;SDS011;59882;45.624;11.698;2023-02-15T09:26:36;76.97;;;45.92;;
66927;SDS011;59882;45.624;11.698;2023-02-15T09:29:05;74.65;;;42.55;;
66927;SDS011;59882;45.624;11.698;2023-02-15T09:31:39;65.93;;;40.55;;
66927;SDS011;59882;45.624;11.698;2023-02-15T09:34:06;63.20;;;36.80;;
66927;SDS011;59882;45.624;11.698;2023-02-15T09:36:36;61.03;;;36.22;;
66927;SDS011;59882;45.624;11.698;2023-02-15T09:41:55;53.63;;;29.25;;
66927;SDS011;59882;45.624;11.698;2023-02-15T09:47:19;57.57;;;33.17;;
66927;SDS011;59882;45.624;11.698;2023-02-15T10:01:45;61.00;;;36.20;;
66927;SDS011;59882;45.624;11.698;2023-02-15T10:17:32;67.78;;;40.65;;
66927;SDS011;59882;45.624;11.698;2023-02-15T10:31:26;67.32;;;36.90;;
66927;SDS011;59882;45.624;11.698;2023-02-15T10:34:04;67.47;;;38.75;;
66927;SDS011;59882;45.624;11.698;2023-02-15T10:44:47;72.15;;;37.85;;
66927;SDS011;59882;45.624;11.698;2023-02-15T10:47:22;65.65;;;36.20;;
66927;SDS011;59882;45.624;11.698;2023-02-15T11:06:28;67.13;;;37.47;;
66927;SDS011;59882;45.624;11.698;2023-02-15T11:08:57;61.75;;;34.72;;
66927;SDS011;59882;45.624;11.698;2023-02-15T11:11:34;63.65;;;35.60;;
66927;SDS011;59882;45.624;11.698;2023-02-15T11:14:13;61.90;;;35.60;;
66927;SDS011;59882;45.624;11.698;2023-02-15T11:16:49;59.27;;;34.23;;
66927;SDS011;59882;45.624;11.698;2023-02-15T11:21:54;62.10;;;34.38;;
66927;SDS011;59882;45.624;11.698;2023-02-15T11:24:29;63.47;;;34.92;;
66927;SDS011;59882;45.624;11.698;2023-02-15T11:27:12;62.13;;;33.58;;
66927;SDS011;59882;45.624;11.698;2023-02-15T11:29:44;67.03;;;35.67;;
66927;SDS011;59882;45.624;11.698;2023-02-15T11:32:20;59.00;;;32.28;;
66927;SDS011;59882;45.624;11.698;2023-02-15T11:40:02;65.78;;;37.75;;
66927;SDS011;59882;45.624;11.698;2023-02-15T11:42:38;67.40;;;36.10;;
66927;SDS011;59882;45.624;11.698;2023-02-15T11:45:07;63.95;;;35.83;;
66927;SDS011;59882;45.624;11.698;2023-02-15T11:47:46;59.90;;;34.95;;
66927;SDS011;59882;45.624;11.698;2023-02-15T11:50:16;59.50;;;34.95;;
66927;SDS011;59882;45.624;11.698;2023-02-15T11:52:47;57.17;;;31.85;;
66927;SDS011;59882;45.624;11.698;2023-02-15T11:55:21;60.23;;;33.20;;
66927;SDS011;59882;45.624;11.698;2023-02-15T11:57:53;59.80;;;35.13;;
66927;SDS011;59882;45.624;11.698;2023-02-15T12:00:40;60.92;;;35.63;;
66927;SDS011;59882;45.624;11.698;2023-02-15T12:03:17;62.97;;;35.00;;
66927;SDS011;59882;45.624;11.698;2023-02-15T12:05:49;57.03;;;33.95;;
66927;SDS011;59882;45.624;11.698;2023-02-15T12:08:19;55.43;;;31.43;;
66927;SDS011;59882;45.624;11.698;2023-02-15T12:10:57;59.03;;;33.28;;
66927;SDS011;59882;45.624;11.698;2023-02-15T12:13:27;61.58;;;33.90;;
66927;SDS011;59882;45.624;11.698;2023-02-15T12:15:54;55.67;;;32.60;;
66927;SDS011;59882;45.624;11.698;2023-02-15T12:18:41;62.22;;;33.85;;
66927;SDS011;59882;45.624;11.698;2023-02-15T12:21:42;59.05;;;32.70;;
66927;SDS011;59882;45.624;11.698;2023-02-15T12:27:01;60.25;;;34.70;;
66927;SDS011;59882;45.624;11.698;2023-02-15T12:29:29;55.57;;;33.67;;
66927;SDS011;59882;45.624;11.698;2023-02-15T12:32:00;57.05;;;33.33;;
66927;SDS011;59882;45.624;11.698;2023-02-15T12:34:30;56.00;;;35.38;;
66927;SDS011;59882;45.624;11.698;2023-02-15T12:37:01;53.03;;;33.13;;
66927;SDS011;59882;45.624;11.698;2023-02-15T12:39:35;50.33;;;32.15;;
66927;SDS011;59882;45.624;11.698;2023-02-15T12:42:08;48.50;;;32.10;;
66927;SDS011;59882;45.624;11.698;2023-02-15T12:44:52;49.30;;;33.80;;
66927;SDS011;59882;45.624;11.698;2023-02-15T12:47:24;51.17;;;32.70;;
66927;SDS011;59882;45.624;11.698;2023-02-15T12:53:06;47.85;;;32.80;;
66927;SDS011;59882;45.624;11.698;2023-02-15T12:58:24;42.08;;;31.98;;
66927;SDS011;59882;45.624;11.698;2023-02-15T13:01:16;41.75;;;32.38;;
66927;SDS011;59882;45.624;11.698;2023-02-15T13:03:59;38.53;;;30.23;;
66927;SDS011;59882;45.624;11.698;2023-02-15T13:06:28;39.53;;;30.55;;
66927;SDS011;59882;45.624;11.698;2023-02-15T13:09:07;40.28;;;30.67;;
66927;SDS011;59882;45.624;11.698;2023-02-15T13:11:44;42.38;;;32.28;;
66927;SDS011;59882;45.624;11.698;2023-02-15T13:16:53;41.67;;;32.07;;
66927;SDS011;59882;45.624;11.698;2023-02-15T13:19:33;41.30;;;34.40;;
66927;SDS011;59882;45.624;11.698;2023-02-15T13:22:14;39.78;;;32.00;;
66927;SDS011;59882;45.624;11.698;2023-02-15T13:24:50;41.22;;;32.83;;
66927;SDS011;59882;45.624;11.698;2023-02-15T13:27:20;38.67;;;30.48;;
66927;SDS011;59882;45.624;11.698;2023-02-15T13:29:57;44.23;;;35.03;;
66927;SDS011;59882;45.624;11.698;2023-02-15T13:32:30;43.22;;;34.80;;
66927;SDS011;59882;45.624;11.698;2023-02-15T13:35:01;42.03;;;34.13;;
66927;SDS011;59882;45.624;11.698;2023-02-15T13:40:23;41.75;;;34.38;;
66927;SDS011;59882;45.624;11.698;2023-02-15T13:43:33;43.73;;;33.97;;
66927;SDS011;59882;45.624;11.698;2023-02-15T13:45:56;45.13;;;35.03;;
66927;SDS011;59882;45.624;11.698;2023-02-15T13:48:44;42.35;;;34.20;;
66927;SDS011;59882;45.624;11.698;2023-02-15T13:51:35;41.55;;;35.45;;
66927;SDS011;59882;45.624;11.698;2023-02-15T14:13:33;52.08;;;44.42;;
66927;SDS011;59882;45.624;11.698;2023-02-15T14:16:26;50.22;;;42.15;;
66927;SDS011;59882;45.624;11.698;2023-02-15T14:19:10;45.50;;;39.70;;
66927;SDS011;59882;45.624;11.698;2023-02-15T14:21:53;52.28;;;43.05;;
66927;SDS011;59882;45.624;11.698;2023-02-15T14:30:02;54.92;;;43.58;;
66927;SDS011;59882;45.624;11.698;2023-02-15T14:32:41;58.55;;;44.30;;
66927;SDS011;59882;45.624;11.698;2023-02-15T14:35:14;50.60;;;41.00;;
66927;SDS011;59882;45.624;11.698;2023-02-15T14:40:40;61.53;;;42.28;;
66927;SDS011;59882;45.624;11.698;2023-02-15T14:43:09;53.50;;;40.22;;
66927;SDS011;59882;45.624;11.698;2023-02-15T14:45:50;53.50;;;38.75;;
66927;SDS011;59882;45.624;11.698;2023-02-15T14:48:40;62.87;;;43.80;;
66927;SDS011;59882;45.624;11.698;2023-02-15T14:51:10;60.63;;;41.92;;
66927;SDS011;59882;45.624;11.698;2023-02-15T14:53:55;62.25;;;43.05;;
66927;SDS011;59882;45.624;11.698;2023-02-15T14:56:22;63.33;;;43.70;;
66927;SDS011;59882;45.624;11.698;2023-02-15T15:01:14;62.43;;;42.60;;
66927;SDS011;59882;45.624;11.698;2023-02-15T15:03:51;61.55;;;40.85;;
66927;SDS011;59882;45.624;11.698;2023-02-15T15:06:28;66.88;;;42.42;;
66927;SDS011;59882;45.624;11.698;2023-02-15T15:08:58;62.25;;;41.78;;
66927;SDS011;59882;45.624;11.698;2023-02-15T15:11:44;66.00;;;42.05;;
66927;SDS011;59882;45.624;11.698;2023-02-15T15:16:58;59.63;;;38.75;;
66927;SDS011;59882;45.624;11.698;2023-02-15T15:22:21;68.30;;;38.72;;
66927;SDS011;59882;45.624;11.698;2023-02-15T15:38:27;97.00;;;63.28;;
66927;SDS011;59882;45.624;11.698;2023-02-15T15:41:19;97.97;;;62.63;;
66927;SDS011;59882;45.624;11.698;2023-02-15T15:49:57;74.80;;;44.38;;
66927;SDS011;59882;45.624;11.698;2023-02-15T15:52:24;65.53;;;39.65;;
66927;SDS011;59882;45.624;11.698;2023-02-15T15:54:53;70.40;;;40.47;;
66927;SDS011;59882;45.624;11.698;2023-02-15T15:57:29;69.70;;;40.45;;
66927;SDS011;59882;45.624;11.698;2023-02-15T16:01:02;69.18;;;40.97;;
66927;SDS011;59882;45.624;11.698;2023-02-15T16:03:16;70.22;;;40.08;;
66927;SDS011;59882;45.624;11.698;2023-02-15T16:05:52;69.65;;;38.88;;
66927;SDS011;59882;45.624;11.698;2023-02-15T16:11:08;69.78;;;39.92;;
66927;SDS011;59882;45.624;11.698;2023-02-15T16:13:39;77.68;;;40.72;;
66927;SDS011;59882;45.624;11.698;2023-02-15T16:16:06;72.38;;;41.17;;
66927;SDS011;59882;45.624;11.698;2023-02-15T16:18:32;71.05;;;38.05;;
66927;SDS011;59882;45.624;11.698;2023-02-15T16:21:03;81.27;;;40.00;;
66927;SDS011;59882;45.624;11.698;2023-02-15T16:28:58;71.45;;;37.00;;
66927;SDS011;59882;45.624;11.698;2023-02-15T16:31:23;70.75;;;38.88;;
66927;SDS011;59882;45.624;11.698;2023-02-15T16:33:52;69.83;;;38.37;;
66927;SDS011;59882;45.624;11.698;2023-02-15T16:36:23;71.50;;;39.33;;
66927;SDS011;59882;45.624;11.698;2023-02-15T16:41:22;79.20;;;40.97;;
66927;SDS011;59882;45.624;11.698;2023-02-15T16:43:50;74.32;;;37.70;;
66927;SDS011;59882;45.624;11.698;2023-02-15T16:46:24;78.65;;;42.05;;
66927;SDS011;59882;45.624;11.698;2023-02-15T16:48:53;78.20;;;41.20;;
66927;SDS011;59882;45.624;11.698;2023-02-15T16:51:26;81.30;;;43.75;;
66927;SDS011;59882;45.624;11.698;2023-02-15T16:53:54;86.90;;;45.97;;
66927;SDS011;59882;45.624;11.698;2023-02-15T16:56:25;76.03;;;41.45;;
66927;SDS011;59882;45.624;11.698;2023-02-15T16:58:55;78.28;;;41.50;;
66927;SDS011;59882;45.624;11.698;2023-02-15T17:01:23;82.43;;;41.73;;
66927;SDS011;59882;45.624;11.698;2023-02-15T17:03:51;83.07;;;44.00;;
66927;SDS011;59882;45.624;11.698;2023-02-15T17:09:30;82.10;;;43.40;;
66927;SDS011;59882;45.624;11.698;2023-02-15T17:11:56;81.30;;;43.63;;
66927;SDS011;59882;45.624;11.698;2023-02-15T17:14:31;82.77;;;43.17;;
66927;SDS011;59882;45.624;11.698;2023-02-15T17:17:05;71.13;;;39.88;;
66927;SDS011;59882;45.624;11.698;2023-02-15T17:19:49;73.88;;;39.28;;
66927;SDS011;59882;45.624;11.698;2023-02-15T17:22:21;73.38;;;40.25;;
66927;SDS011;59882;45.624;11.698;2023-02-15T17:25:02;72.63;;;40.17;;
66927;SDS011;59882;45.624;11.698;2023-02-15T17:27:29;75.70;;;41.43;;
66927;SDS011;59882;45.624;11.698;2023-02-15T17:30:01;76.05;;;42.55;;
66927;SDS011;59882;45.624;11.698;2023-02-15T17:32:30;85.45;;;41.83;;
66927;SDS011;59882;45.624;11.698;2023-02-15T17:37:31;85.10;;;43.08;;
66927;SDS011;59882;45.624;11.698;2023-02-15T17:39:57;80.50;;;41.17;;
66927;SDS011;59882;45.624;11.698;2023-02-15T17:42:25;77.82;;;40.88;;
66927;SDS011;59882;45.624;11.698;2023-02-15T17:44:51;80.72;;;41.45;;